createdAt,value
2018-12-16T00:00:43.579Z,99.99
2018-12-16T00:01:43.491Z,99.99
2018-12-16T00:02:43.296Z,99.99
2018-12-16T00:03:43.204Z,99.99
2018-12-16T00:04:49.664Z,99.99
2018-12-16T00:05:43.024Z,99.99
2018-12-16T00:06:42.940Z,99.99
2018-12-16T00:07:42.844Z,99.99
2018-12-16T00:08:42.860Z,99.99
2018-12-16T00:09:42.665Z,99.99
2018-12-16T00:10:42.576Z,99.99
2018-12-16T00:11:42.486Z,99.99
2018-12-16T00:12:42.393Z,99.99
2018-12-16T00:13:42.407Z,99.99
2018-12-16T00:14:42.213Z,99.99
2018-12-16T00:15:42.123Z,99.99
2018-12-16T00:16:42.033Z,99.99
2018-12-16T00:17:41.944Z,99.99
2018-12-16T00:18:41.957Z,99.99
2018-12-16T00:19:41.762Z,99.99
2018-12-16T00:20:41.672Z,99.99
2018-12-16T00:21:41.582Z,99.99
2018-12-16T00:22:41.492Z,99.99
2018-12-16T00:23:41.505Z,99.99
2018-12-16T00:24:41.316Z,99.99
2018-12-16T00:25:41.223Z,99.99
2018-12-16T00:26:41.132Z,99.99
2018-12-16T00:27:41.042Z,99.99
2018-12-16T00:28:41.057Z,99.99
2018-12-16T00:29:40.864Z,99.99
2018-12-16T00:30:40.771Z,99.99
2018-12-16T00:31:40.690Z,99.99
2018-12-16T00:32:40.611Z,99.99
2018-12-16T00:33:40.505Z,99.99
2018-12-16T00:34:40.411Z,99.99
2018-12-16T00:35:40.321Z,99.99
2018-12-16T00:36:40.230Z,99.99
2018-12-16T00:37:40.142Z,99.99
2018-12-16T00:38:40.049Z,99.99
2018-12-16T00:39:39.959Z,99.99
2018-12-16T00:40:39.868Z,99.99
2018-12-16T00:41:39.790Z,99.99
2018-12-16T00:42:39.688Z,99.99
2018-12-16T00:43:39.599Z,99.99
2018-12-16T00:44:39.506Z,99.99
2018-12-16T00:45:39.415Z,99.99
2018-12-16T00:46:39.328Z,99.99
2018-12-16T00:47:39.342Z,99.99
2018-12-16T00:48:39.145Z,99.99
2018-12-16T00:49:39.056Z,99.99
2018-12-16T00:50:38.967Z,99.99
2018-12-16T00:51:38.877Z,99.99
2018-12-16T00:52:38.786Z,99.99
2018-12-16T00:53:38.696Z,99.99
2018-12-16T00:54:38.605Z,99.99
2018-12-16T00:55:38.619Z,99.99
2018-12-16T00:56:38.423Z,99.99
2018-12-16T00:57:38.333Z,99.99
2018-12-16T00:58:38.243Z,99.99
2018-12-16T00:59:38.156Z,99.99
2018-12-16T01:00:38.165Z,99.99
2018-12-16T01:01:37.971Z,99.99
2018-12-16T01:02:37.879Z,99.99
2018-12-16T01:03:37.790Z,99.99
2018-12-16T01:04:37.699Z,99.99
2018-12-16T01:05:37.612Z,99.99
2018-12-16T01:06:37.520Z,99.99
2018-12-16T01:07:37.431Z,99.99
2018-12-16T01:08:37.337Z,99.99
2018-12-16T01:09:37.247Z,99.99
2018-12-16T01:10:37.157Z,99.99
2018-12-16T01:11:37.070Z,99.99
2018-12-16T01:12:36.974Z,99.99
2018-12-16T01:13:36.897Z,99.99
2018-12-16T01:14:36.795Z,99.99
2018-12-16T01:15:36.704Z,99.99
2018-12-16T01:16:36.613Z,99.99
2018-12-16T01:17:36.522Z,99.99
2018-12-16T01:18:36.543Z,99.99
2018-12-16T01:19:36.355Z,99.99
2018-12-16T01:20:36.251Z,99.99
2018-12-16T01:21:36.163Z,99.99
2018-12-16T01:22:36.071Z,99.99
2018-12-16T01:23:35.988Z,99.99
2018-12-16T01:24:35.892Z,99.99
2018-12-16T01:25:35.798Z,99.99
2018-12-16T01:26:35.713Z,99.99
2018-12-16T01:27:35.620Z,99.99
2018-12-16T01:28:35.528Z,99.99
2018-12-16T01:29:35.548Z,99.99
2018-12-16T01:30:35.350Z,99.99
2018-12-16T01:31:35.258Z,99.99
2018-12-16T01:32:35.169Z,99.99
2018-12-16T01:33:35.077Z,99.99
2018-12-16T01:34:34.986Z,99.99
2018-12-16T01:35:34.898Z,99.99
2018-12-16T01:36:34.804Z,99.99
2018-12-16T01:37:34.712Z,99.99
2018-12-16T01:38:34.624Z,99.99
2018-12-16T01:39:34.532Z,99.99
2018-12-16T01:40:34.544Z,99.99
2018-12-16T01:41:34.458Z,99.99
2018-12-16T01:42:34.260Z,99.99
2018-12-16T01:43:34.169Z,99.99
2018-12-16T01:44:34.077Z,99.99
2018-12-16T01:45:33.990Z,99.99
2018-12-16T01:46:33.897Z,99.99
2018-12-16T01:47:33.807Z,99.99
2018-12-16T01:48:33.715Z,99.99
2018-12-16T01:49:33.625Z,99.99
2018-12-16T01:50:33.538Z,99.99
2018-12-16T01:51:33.445Z,99.99
2018-12-16T01:52:33.353Z,99.99
2018-12-16T01:53:33.263Z,99.99
2018-12-16T01:54:33.277Z,99.99
2018-12-16T01:55:33.081Z,99.99
2018-12-16T01:56:33.098Z,99.99
2018-12-16T01:57:32.902Z,99.99
2018-12-16T01:58:32.811Z,99.99
2018-12-16T01:59:32.824Z,99.99
2018-12-16T02:00:32.628Z,99.99
2018-12-16T02:01:32.539Z,99.99
2018-12-16T02:02:32.448Z,99.99
2018-12-16T02:03:32.357Z,99.99
2018-12-16T02:04:32.373Z,99.99
2018-12-16T02:05:32.175Z,99.99
2018-12-16T02:06:32.085Z,99.99
2018-12-16T02:07:31.996Z,99.99
2018-12-16T02:08:31.902Z,99.99
2018-12-16T02:09:31.917Z,99.99
2018-12-16T02:10:31.723Z,99.99
2018-12-16T02:11:31.735Z,99.99
2018-12-16T02:12:31.544Z,99.99
2018-12-16T02:13:31.454Z,99.99
2018-12-16T02:14:31.462Z,99.99
2018-12-16T02:15:31.270Z,99.99
2018-12-16T02:16:31.176Z,99.99
2018-12-16T02:17:31.091Z,99.99
2018-12-16T02:18:31.101Z,99.99
2018-12-16T02:19:30.907Z,99.99
2018-12-16T02:20:30.819Z,99.99
2018-12-16T02:21:30.725Z,99.99
2018-12-16T02:22:30.674Z,99.99
2018-12-16T02:23:30.543Z,99.99
2018-12-16T02:24:30.556Z,99.99
2018-12-16T02:25:30.360Z,99.99
2018-12-16T02:26:30.377Z,99.99
2018-12-16T02:27:30.179Z,99.99
2018-12-16T02:28:30.088Z,99.99
2018-12-16T02:29:30.106Z,99.99
2018-12-16T02:30:29.907Z,99.99
2018-12-16T02:31:29.816Z,99.99
2018-12-16T02:32:29.728Z,99.99
2018-12-16T02:33:29.644Z,99.99
2018-12-16T02:34:29.649Z,99.99
2018-12-16T02:35:29.456Z,99.99
2018-12-16T02:36:29.365Z,99.99
2018-12-16T02:37:29.270Z,99.99
2018-12-16T02:38:29.181Z,99.99
2018-12-16T02:39:29.195Z,99.99
2018-12-16T02:40:28.999Z,99.99
2018-12-16T02:41:28.913Z,99.99
2018-12-16T02:42:28.921Z,99.99
2018-12-16T02:43:28.729Z,99.99
2018-12-16T02:44:28.740Z,99.99
2018-12-16T02:45:28.546Z,99.99
2018-12-16T02:46:28.455Z,99.99
2018-12-16T02:47:28.366Z,99.99
2018-12-16T02:48:28.275Z,99.99
2018-12-16T02:49:28.182Z,99.99
2018-12-16T02:50:28.100Z,99.99
2018-12-16T02:51:28.002Z,99.99
2018-12-16T02:52:27.909Z,99.99
2018-12-16T02:53:27.820Z,99.99
2018-12-16T02:54:27.839Z,99.99
2018-12-16T02:55:27.639Z,99.99
2018-12-16T02:56:27.547Z,99.99
2018-12-16T02:57:27.561Z,99.99
2018-12-16T02:58:27.368Z,99.99
2018-12-16T02:59:27.385Z,99.99
2018-12-16T03:00:27.182Z,99.99
2018-12-16T03:01:27.099Z,99.99
2018-12-16T03:02:27.015Z,99.99
2018-12-16T03:03:26.912Z,99.99
2018-12-16T03:04:26.823Z,99.99
2018-12-16T03:05:26.731Z,99.99
2018-12-16T03:06:26.642Z,99.99
2018-12-16T03:07:26.549Z,99.99
2018-12-16T03:08:26.462Z,99.99
2018-12-16T03:09:26.377Z,99.99
2018-12-16T03:10:26.278Z,99.99
2018-12-16T03:11:26.191Z,99.99
2018-12-16T03:12:26.096Z,99.99
2018-12-16T03:13:26.111Z,99.99
2018-12-16T03:14:25.920Z,99.99
2018-12-16T03:15:25.822Z,99.99
2018-12-16T03:16:25.732Z,99.99
2018-12-16T03:17:25.646Z,99.99
2018-12-16T03:18:25.655Z,99.99
2018-12-16T03:19:25.482Z,99.99
2018-12-16T03:20:25.367Z,99.99
2018-12-16T03:21:25.281Z,99.99
2018-12-16T03:22:25.188Z,99.99
2018-12-16T03:23:25.098Z,99.99
2018-12-16T03:24:25.109Z,99.99
2018-12-16T03:25:24.918Z,99.99
2018-12-16T03:26:24.826Z,99.99
2018-12-16T03:27:24.736Z,99.99
2018-12-16T03:28:24.643Z,99.99
2018-12-16T03:29:24.551Z,99.99
2018-12-16T03:30:24.465Z,99.99
2018-12-16T03:31:24.372Z,99.99
2018-12-16T03:32:24.280Z,99.99
2018-12-16T03:33:24.190Z,99.99
2018-12-16T03:34:24.203Z,99.99
2018-12-16T03:35:24.006Z,99.99
2018-12-16T03:36:23.915Z,99.99
2018-12-16T03:37:23.825Z,99.99
2018-12-16T03:38:23.736Z,99.99
2018-12-16T03:39:23.749Z,99.99
2018-12-16T03:40:23.552Z,99.99
2018-12-16T03:41:23.462Z,99.99
2018-12-16T03:42:23.373Z,99.99
2018-12-16T03:43:23.279Z,99.99
2018-12-16T03:44:23.295Z,99.99
2018-12-16T03:45:23.097Z,99.99
2018-12-16T03:46:23.007Z,99.99
2018-12-16T03:47:22.916Z,99.99
2018-12-16T03:48:22.830Z,99.99
2018-12-16T03:49:22.735Z,99.99
2018-12-16T03:50:22.649Z,99.99
2018-12-16T03:51:22.556Z,99.99
2018-12-16T03:52:22.466Z,99.99
2018-12-16T03:53:22.371Z,99.99
2018-12-16T03:54:22.390Z,99.99
2018-12-16T03:55:22.195Z,99.99
2018-12-16T03:56:22.206Z,99.99
2018-12-16T03:57:22.113Z,99.99
2018-12-16T03:58:22.022Z,99.99
2018-12-16T03:59:21.937Z,99.99
2018-12-16T04:00:21.737Z,99.99
2018-12-16T04:01:28.970Z,99.99
2018-12-16T04:03:25.967Z,99.99
2018-12-16T04:04:25.821Z,99.99
2018-12-16T04:06:29.615Z,99.99
2018-12-16T04:07:29.521Z,99.99
2018-12-16T04:09:33.372Z,99.99
2018-12-16T04:10:33.222Z,99.99
2018-12-16T04:12:25.962Z,99.99
2018-12-16T04:13:25.855Z,99.99
2018-12-16T04:15:30.177Z,99.99
2018-12-16T04:16:30.034Z,99.99
2018-12-16T04:18:33.879Z,99.99
2018-12-16T04:19:33.737Z,99.99
2018-12-16T04:21:38.008Z,99.99
2018-12-16T04:22:37.911Z,99.99
2018-12-16T04:24:41.770Z,99.99
2018-12-16T04:25:41.626Z,99.99
2018-12-16T04:26:41.535Z,99.99
2018-12-16T04:27:41.445Z,99.99
2018-12-16T04:28:41.353Z,99.99
2018-12-16T04:29:41.263Z,99.99
2018-12-16T04:30:41.174Z,99.99
2018-12-16T04:31:41.082Z,99.99
2018-12-16T04:32:40.992Z,99.99
2018-12-16T04:33:40.899Z,99.99
2018-12-16T04:34:40.810Z,99.99
2018-12-16T04:35:40.717Z,99.99
2018-12-16T04:36:40.631Z,99.99
2018-12-16T04:37:40.537Z,99.99
2018-12-16T04:38:40.444Z,99.99
2018-12-16T04:39:40.357Z,99.99
2018-12-16T04:40:40.268Z,99.99
2018-12-16T04:41:40.176Z,99.99
2018-12-16T04:42:40.086Z,99.99
2018-12-16T04:43:39.997Z,99.99
2018-12-16T04:44:39.904Z,99.99
2018-12-16T04:45:39.814Z,99.99
2018-12-16T04:46:39.722Z,99.99
2018-12-16T04:47:39.631Z,99.99
2018-12-16T04:48:39.547Z,99.99
2018-12-16T04:49:39.450Z,99.99
2018-12-16T04:50:39.363Z,99.99
2018-12-16T04:51:39.275Z,99.99
2018-12-16T04:52:39.181Z,99.99
2018-12-16T04:53:39.088Z,99.99
2018-12-16T04:54:39.000Z,99.99
2018-12-16T04:55:38.906Z,99.99
2018-12-16T04:56:38.817Z,99.99
2018-12-16T04:57:38.738Z,99.99
2018-12-16T04:58:38.635Z,99.99
2018-12-16T04:59:38.545Z,99.99
2018-12-16T05:00:38.456Z,99.99
2018-12-16T05:01:38.362Z,99.99
2018-12-16T05:02:38.270Z,99.99
2018-12-16T05:03:38.184Z,99.99
2018-12-16T05:04:38.091Z,99.99
2018-12-16T05:05:38.002Z,99.99
2018-12-16T05:06:37.911Z,99.99
2018-12-16T05:07:37.819Z,99.99
2018-12-16T05:08:37.733Z,99.99
2018-12-16T05:09:37.649Z,99.99
2018-12-16T05:10:37.564Z,99.99
2018-12-16T05:11:37.458Z,99.99
2018-12-16T05:12:37.370Z,99.99
2018-12-16T05:13:37.277Z,99.99
2018-12-16T05:14:37.184Z,99.99
2018-12-16T05:15:37.094Z,99.99
2018-12-16T05:16:37.006Z,99.99
2018-12-16T05:17:36.913Z,99.99
2018-12-16T05:18:36.844Z,99.99
2018-12-16T05:19:36.732Z,99.99
2018-12-16T05:20:36.642Z,99.99
2018-12-16T05:21:36.550Z,99.99
2018-12-16T05:22:36.461Z,99.99
2018-12-16T05:23:41.776Z,99.99
2018-12-16T05:24:36.278Z,99.99
2018-12-16T05:25:36.189Z,99.99
2018-12-16T05:26:36.101Z,99.99
2018-12-16T05:27:36.009Z,99.99
2018-12-16T05:28:35.919Z,99.99
2018-12-16T05:29:35.828Z,99.99
2018-12-16T05:30:35.737Z,99.99
2018-12-16T05:31:35.647Z,99.99
2018-12-16T05:32:35.556Z,99.99
2018-12-16T05:33:35.468Z,99.99
2018-12-16T05:34:35.384Z,99.99
2018-12-16T05:35:35.284Z,99.99
2018-12-16T05:36:35.200Z,99.99
2018-12-16T05:37:35.103Z,99.99
2018-12-16T05:38:35.013Z,99.99
2018-12-16T05:39:34.923Z,99.99
2018-12-16T05:40:34.831Z,99.99
2018-12-16T05:41:34.740Z,99.99
2018-12-16T05:42:34.665Z,99.99
2018-12-16T05:43:34.557Z,99.99
2018-12-16T05:44:34.521Z,99.99
2018-12-16T05:45:34.377Z,99.99
2018-12-16T05:46:34.287Z,99.99
2018-12-16T05:47:34.198Z,99.99
2018-12-16T05:48:34.107Z,99.99
2018-12-16T05:49:34.018Z,99.99
2018-12-16T05:50:33.925Z,99.99
2018-12-16T05:51:33.835Z,99.99
2018-12-16T05:52:33.746Z,99.99
2018-12-16T05:53:33.653Z,99.99
2018-12-16T05:54:33.563Z,99.99
2018-12-16T05:55:33.472Z,99.99
2018-12-16T05:56:33.383Z,99.99
2018-12-16T05:57:33.290Z,99.99
2018-12-16T05:58:33.200Z,99.99
2018-12-16T05:59:33.108Z,99.99
2018-12-16T06:00:33.020Z,99.99
2018-12-16T06:01:32.927Z,99.99
2018-12-16T06:02:32.836Z,99.99
2018-12-16T06:03:32.748Z,99.99
2018-12-16T06:04:32.659Z,99.99
2018-12-16T06:05:32.568Z,99.99
2018-12-16T06:06:32.479Z,99.99
2018-12-16T06:07:32.386Z,99.99
2018-12-16T06:08:32.296Z,99.99
2018-12-16T06:09:32.204Z,99.99
2018-12-16T06:10:32.115Z,99.99
2018-12-16T06:11:32.024Z,99.99
2018-12-16T06:12:31.933Z,99.99
2018-12-16T06:13:31.840Z,99.99
2018-12-16T06:14:31.755Z,99.99
2018-12-16T06:15:31.664Z,99.99
2018-12-16T06:16:31.571Z,99.99
2018-12-16T06:17:31.482Z,99.99
2018-12-16T06:18:31.391Z,99.99
2018-12-16T06:19:31.303Z,99.99
2018-12-16T06:20:31.210Z,99.99
2018-12-16T06:21:31.120Z,99.99
2018-12-16T06:22:31.027Z,99.99
2018-12-16T06:23:30.940Z,99.99
2018-12-16T06:24:30.849Z,99.99
2018-12-16T06:25:30.765Z,99.99
2018-12-16T06:26:30.667Z,99.99
2018-12-16T06:27:30.578Z,99.99
2018-12-16T06:28:30.485Z,99.99
2018-12-16T06:29:30.393Z,99.99
2018-12-16T06:30:30.303Z,99.99
2018-12-16T06:31:30.213Z,99.99
2018-12-16T06:32:30.125Z,99.99
2018-12-16T06:33:30.030Z,99.99
2018-12-16T06:34:29.943Z,99.99
2018-12-16T06:35:29.859Z,99.99
2018-12-16T06:36:29.763Z,99.99
2018-12-16T06:37:29.671Z,99.99
2018-12-16T06:38:29.580Z,99.99
2018-12-16T06:39:29.492Z,99.99
2018-12-16T06:40:29.401Z,99.99
2018-12-16T06:41:29.312Z,99.99
2018-12-16T06:42:29.218Z,99.99
2018-12-16T06:43:29.130Z,99.99
2018-12-16T06:44:29.038Z,99.99
2018-12-16T06:45:28.948Z,99.99
2018-12-16T06:46:28.856Z,99.99
2018-12-16T06:47:28.765Z,99.99
2018-12-16T06:48:28.678Z,99.99
2018-12-16T06:49:28.585Z,99.99
2018-12-16T06:50:28.496Z,99.99
2018-12-16T06:51:28.409Z,99.99
2018-12-16T06:52:28.329Z,99.99
2018-12-16T06:53:28.227Z,99.99
2018-12-16T06:54:28.137Z,99.99
2018-12-16T06:55:28.046Z,99.89
2018-12-16T06:56:27.953Z,99.99
2018-12-16T06:57:27.862Z,99.99
2018-12-16T06:58:27.785Z,99.99
2018-12-16T06:59:27.683Z,99.99
2018-12-16T07:00:27.590Z,99.99
2018-12-16T07:01:27.499Z,99.99
2018-12-16T07:02:27.410Z,99.99
2018-12-16T07:03:27.319Z,99.99
2018-12-16T07:04:27.229Z,99.99
2018-12-16T07:05:27.143Z,99.99
2018-12-16T07:06:27.048Z,99.99
2018-12-16T07:07:26.964Z,99.99
2018-12-16T07:08:26.872Z,99.99
2018-12-16T07:09:26.787Z,99.99
2018-12-16T07:10:26.686Z,99.99
2018-12-16T07:11:26.597Z,99.99
2018-12-16T07:12:26.536Z,99.99
2018-12-16T07:13:26.421Z,99.99
2018-12-16T07:14:26.327Z,99.99
2018-12-16T07:15:26.235Z,99.99
2018-12-16T07:16:26.176Z,99.99
2018-12-16T07:17:26.058Z,99.99
2018-12-16T07:18:26.001Z,99.99
2018-12-16T07:19:25.873Z,99.99
2018-12-16T07:20:25.794Z,99.99
2018-12-16T07:21:25.693Z,99.99
2018-12-16T07:22:25.602Z,99.99
2018-12-16T07:23:25.546Z,99.99
2018-12-16T07:24:25.447Z,99.99
2018-12-16T07:25:25.332Z,99.99
2018-12-16T07:26:25.278Z,99.99
2018-12-16T07:27:25.161Z,99.99
2018-12-16T07:28:25.062Z,99.99
2018-12-16T07:29:24.973Z,99.99
2018-12-16T07:30:24.916Z,99.99
2018-12-16T07:31:24.831Z,99.99
2018-12-16T07:32:24.699Z,99.99
2018-12-16T07:33:24.611Z,99.99
2018-12-16T07:34:24.520Z,99.99
2018-12-16T07:35:24.428Z,99.99
2018-12-16T07:36:24.352Z,99.99
2018-12-16T07:37:24.269Z,99.99
2018-12-16T07:38:24.191Z,99.99
2018-12-16T07:39:24.073Z,99.99
2018-12-16T07:40:23.977Z,99.99
2018-12-16T07:41:23.903Z,99.99
2018-12-16T07:42:23.800Z,99.99
2018-12-16T07:43:23.738Z,99.99
2018-12-16T07:44:23.615Z,99.99
2018-12-16T07:45:23.524Z,99.99
2018-12-16T07:46:23.437Z,99.99
2018-12-16T07:47:23.344Z,99.99
2018-12-16T07:48:23.257Z,99.99
2018-12-16T07:49:23.188Z,99.99
2018-12-16T07:50:23.073Z,99.99
2018-12-16T07:51:23.001Z,99.99
2018-12-16T07:52:22.897Z,99.99
2018-12-16T07:53:22.801Z,99.99
2018-12-16T07:54:22.722Z,99.99
2018-12-16T07:55:22.626Z,99.99
2018-12-16T07:56:22.533Z,99.99
2018-12-16T07:57:22.443Z,99.99
2018-12-16T07:58:22.351Z,99.99
2018-12-16T07:59:22.263Z,99.99
2018-12-16T08:00:22.194Z,99.99
2018-12-16T08:01:22.085Z,99.99
2018-12-16T08:02:21.992Z,99.99
2018-12-16T08:03:21.943Z,99.99
2018-12-16T08:04:21.811Z,99.99
2018-12-16T08:05:21.729Z,99.99
2018-12-16T08:06:21.631Z,99.99
2018-12-16T08:07:21.540Z,99.99
2018-12-16T08:08:21.449Z,99.99
2018-12-16T08:09:21.364Z,99.99
2018-12-16T08:10:21.274Z,99.99
2018-12-16T08:11:21.178Z,99.99
2018-12-16T08:12:21.091Z,99.99
2018-12-16T08:13:21.000Z,99.99
2018-12-16T08:14:20.912Z,99.99
2018-12-16T08:15:20.819Z,99.99
2018-12-16T08:16:20.732Z,99.99
2018-12-16T08:17:20.644Z,99.99
2018-12-16T08:18:20.550Z,99.99
2018-12-16T08:19:20.462Z,99.99
2018-12-16T08:20:20.371Z,99.99
2018-12-16T08:21:20.283Z,99.99
2018-12-16T08:22:20.188Z,99.99
2018-12-16T08:23:20.100Z,99.99
2018-12-16T08:24:23.089Z,99.99
2018-12-16T08:25:19.924Z,99.99
2018-12-16T08:26:19.830Z,99.99
2018-12-16T08:27:19.738Z,99.99
2018-12-16T08:28:19.649Z,99.99
2018-12-16T08:29:19.559Z,99.99
2018-12-16T08:30:19.471Z,99.99
2018-12-16T08:31:19.382Z,99.99
2018-12-16T08:32:19.291Z,99.99
2018-12-16T08:33:19.200Z,99.99
2018-12-16T08:34:19.111Z,99.99
2018-12-16T08:35:19.019Z,99.99
2018-12-16T08:36:18.933Z,99.99
2018-12-16T08:37:18.918Z,99.99
2018-12-16T08:38:18.754Z,99.99
2018-12-16T08:39:18.660Z,99.99
2018-12-16T08:40:18.572Z,99.99
2018-12-16T08:41:18.489Z,99.99
2018-12-16T08:42:18.392Z,99.99
2018-12-16T08:43:18.300Z,99.99
2018-12-16T08:44:18.217Z,99.99
2018-12-16T08:45:18.122Z,99.99
2018-12-16T08:46:18.031Z,99.99
2018-12-16T08:47:17.945Z,99.99
2018-12-16T08:48:17.852Z,99.99
2018-12-16T08:49:17.761Z,99.99
2018-12-16T08:50:17.674Z,99.99
2018-12-16T08:51:17.582Z,99.99
2018-12-16T08:52:17.492Z,99.99
2018-12-16T08:53:17.402Z,99.99
2018-12-16T08:54:17.313Z,99.99
2018-12-16T08:55:17.224Z,99.99
2018-12-16T08:56:17.139Z,99.99
2018-12-16T08:57:17.044Z,99.99
2018-12-16T08:58:16.953Z,99.99
2018-12-16T08:59:16.866Z,99.99
2018-12-16T09:00:16.774Z,99.99
2018-12-16T09:01:16.685Z,99.99
2018-12-16T09:02:16.594Z,99.99
2018-12-16T09:03:16.508Z,99.99
2018-12-16T09:04:16.422Z,99.99
2018-12-16T09:05:16.326Z,99.99
2018-12-16T09:06:16.235Z,99.99
2018-12-16T09:07:16.145Z,99.99
2018-12-16T09:08:16.057Z,99.99
2018-12-16T09:09:15.966Z,99.99
2018-12-16T09:10:15.877Z,99.99
2018-12-16T09:11:15.787Z,99.99
2018-12-16T09:12:15.698Z,99.99
2018-12-16T09:13:15.609Z,99.99
2018-12-16T09:14:15.519Z,99.99
2018-12-16T09:15:15.431Z,99.99
2018-12-16T09:16:15.339Z,99.99
2018-12-16T09:17:15.247Z,99.99
2018-12-16T09:18:15.160Z,99.99
2018-12-16T09:19:15.070Z,99.99
2018-12-16T09:20:14.979Z,99.99
2018-12-16T09:21:14.889Z,99.99
2018-12-16T09:22:14.805Z,99.99
2018-12-16T09:23:14.713Z,99.99
2018-12-16T09:24:14.621Z,99.99
2018-12-16T09:25:14.533Z,99.99
2018-12-16T09:26:14.442Z,99.99
2018-12-16T09:27:14.354Z,99.99
2018-12-16T09:28:14.263Z,99.99
2018-12-16T09:29:14.173Z,99.99
2018-12-16T09:30:14.089Z,99.99
2018-12-16T09:31:13.992Z,99.99
2018-12-16T09:32:13.905Z,99.99
2018-12-16T09:33:13.818Z,99.99
2018-12-16T09:34:13.761Z,99.99
2018-12-16T09:35:13.638Z,99.99
2018-12-16T09:36:13.553Z,99.99
2018-12-16T09:37:13.461Z,99.99
2018-12-16T09:38:13.369Z,99.99
2018-12-16T09:39:13.289Z,99.99
2018-12-16T09:40:13.188Z,99.99
2018-12-16T09:41:13.098Z,99.99
2018-12-16T09:42:13.007Z,99.99
2018-12-16T09:43:12.931Z,99.99
2018-12-16T09:44:12.831Z,99.99
2018-12-16T09:45:12.746Z,99.99
2018-12-16T09:46:12.648Z,99.99
2018-12-16T09:47:12.559Z,99.99
2018-12-16T09:48:12.492Z,99.99
2018-12-16T09:49:12.381Z,99.99
2018-12-16T09:50:12.291Z,99.99
2018-12-16T09:51:12.207Z,99.99
2018-12-16T09:52:12.120Z,99.99
2018-12-16T09:53:12.025Z,99.99
2018-12-16T09:54:11.933Z,99.99
2018-12-16T09:55:11.843Z,99.99
2018-12-16T09:56:11.762Z,99.99
2018-12-16T09:57:11.665Z,99.99
2018-12-16T09:58:11.574Z,99.99
2018-12-16T09:59:11.484Z,99.99
2018-12-16T10:00:11.397Z,99.99
2018-12-16T10:01:11.304Z,99.99
2018-12-16T10:02:18.863Z,99.99
2018-12-16T10:04:15.544Z,99.99
2018-12-16T10:05:15.407Z,99.99
2018-12-16T10:07:19.777Z,99.99
2018-12-16T10:08:19.587Z,99.99
2018-12-16T10:10:23.861Z,99.99
2018-12-16T10:11:23.768Z,99.99
2018-12-16T10:13:17.033Z,99.99
2018-12-16T10:14:16.895Z,99.99
2018-12-16T10:16:21.220Z,99.99
2018-12-16T10:17:21.084Z,99.99
2018-12-16T10:19:25.370Z,99.99
2018-12-16T10:20:25.273Z,99.99
2018-12-16T10:22:29.605Z,99.99
2018-12-16T10:23:29.472Z,99.99
2018-12-16T10:25:33.758Z,99.99
2018-12-16T10:26:33.660Z,99.99
2018-12-16T10:27:33.570Z,99.99
2018-12-16T10:28:33.482Z,99.99
2018-12-16T10:29:33.397Z,99.99
2018-12-16T10:30:33.302Z,99.99
2018-12-16T10:31:33.213Z,99.99
2018-12-16T10:32:33.122Z,99.99
2018-12-16T10:33:33.034Z,99.99
2018-12-16T10:34:32.943Z,99.99
2018-12-16T10:35:32.876Z,99.99
2018-12-16T10:36:32.791Z,99.99
2018-12-16T10:37:32.701Z,99.99
2018-12-16T10:38:32.587Z,99.99
2018-12-16T10:39:32.509Z,99.99
2018-12-16T10:40:32.410Z,99.99
2018-12-16T10:41:32.325Z,99.99
2018-12-16T10:42:32.233Z,99.99
2018-12-16T10:43:32.143Z,99.99
2018-12-16T10:44:32.052Z,99.99
2018-12-16T10:45:31.963Z,99.99
2018-12-16T10:46:31.873Z,99.99
2018-12-16T10:47:31.785Z,99.99
2018-12-16T10:48:31.698Z,99.99
2018-12-16T10:49:31.614Z,99.99
2018-12-16T10:50:31.518Z,99.99
2018-12-16T10:51:31.478Z,99.99
2018-12-16T10:52:31.339Z,99.99
2018-12-16T10:53:31.251Z,99.99
2018-12-16T10:54:31.159Z,99.99
2018-12-16T10:55:31.070Z,99.99
2018-12-16T10:56:30.983Z,99.99
2018-12-16T10:57:30.894Z,99.99
2018-12-16T10:58:30.803Z,99.99
2018-12-16T10:59:30.715Z,99.99
2018-12-16T11:00:30.710Z,99.99
2018-12-16T11:01:30.535Z,99.99
2018-12-16T11:02:30.445Z,99.99
2018-12-16T11:03:30.358Z,99.99
2018-12-16T11:04:30.267Z,99.99
2018-12-16T11:05:30.182Z,99.99
2018-12-16T11:06:30.090Z,99.99
2018-12-16T11:07:30.002Z,99.99
2018-12-16T11:08:29.911Z,99.99
2018-12-16T11:09:29.824Z,99.99
2018-12-16T11:10:29.733Z,99.99
2018-12-16T11:11:29.644Z,99.99
2018-12-16T11:12:29.555Z,99.99
2018-12-16T11:13:29.466Z,99.99
2018-12-16T11:14:29.423Z,99.99
2018-12-16T11:15:29.295Z,99.99
2018-12-16T11:16:29.200Z,99.99
2018-12-16T11:17:29.113Z,99.99
2018-12-16T11:18:29.019Z,99.99
2018-12-16T11:19:28.933Z,99.99
2018-12-16T11:20:28.844Z,99.99
2018-12-16T11:21:28.752Z,99.99
2018-12-16T11:22:28.663Z,99.99
2018-12-16T11:23:28.577Z,99.99
2018-12-16T11:24:28.485Z,99.99
2018-12-16T11:25:28.399Z,99.99
2018-12-16T11:26:28.310Z,99.99
2018-12-16T11:27:28.244Z,99.99
2018-12-16T11:28:28.132Z,99.99
2018-12-16T11:29:28.042Z,99.99
2018-12-16T11:30:27.970Z,99.99
2018-12-16T11:31:27.862Z,99.99
2018-12-16T11:32:27.776Z,99.99
2018-12-16T11:33:27.690Z,99.99
2018-12-16T11:34:27.598Z,99.99
2018-12-16T11:35:27.526Z,99.99
2018-12-16T11:36:27.419Z,99.99
2018-12-16T11:37:27.336Z,99.99
2018-12-16T11:38:27.242Z,99.99
2018-12-16T11:39:27.153Z,99.99
2018-12-16T11:40:27.063Z,99.99
2018-12-16T11:41:26.975Z,99.99
2018-12-16T11:42:26.887Z,99.99
2018-12-16T11:43:26.798Z,99.99
2018-12-16T11:44:27.355Z,99.99
2018-12-16T11:45:26.620Z,99.99
2018-12-16T11:46:26.530Z,99.99
2018-12-16T11:47:26.451Z,99.99
2018-12-16T11:48:26.356Z,99.99
2018-12-16T11:49:26.266Z,99.99
2018-12-16T11:50:26.179Z,99.99
2018-12-16T11:51:26.084Z,99.99
2018-12-16T11:52:25.998Z,99.99
2018-12-16T11:53:25.907Z,99.99
2018-12-16T11:54:25.818Z,99.99
2018-12-16T11:55:25.727Z,99.99
2018-12-16T11:56:25.681Z,99.99
2018-12-16T11:57:25.552Z,99.99
2018-12-16T11:58:25.462Z,99.99
2018-12-16T11:59:25.398Z,99.99
2018-12-16T12:00:25.316Z,99.99
2018-12-16T12:01:25.195Z,99.99
2018-12-16T12:02:25.141Z,99.99
2018-12-16T12:03:25.019Z,99.99
2018-12-16T12:04:24.941Z,99.99
2018-12-16T12:05:24.839Z,99.99
2018-12-16T12:06:24.750Z,99.99
2018-12-16T12:07:24.665Z,99.66
2018-12-16T12:08:24.646Z,99.99
2018-12-16T12:09:24.485Z,99.99
2018-12-16T12:10:24.395Z,99.99
2018-12-16T12:11:24.306Z,99.76
2018-12-16T12:12:24.216Z,99.95
2018-12-16T12:13:24.127Z,99.85
2018-12-16T12:14:24.042Z,98.62
2018-12-16T12:15:23.948Z,98.90
2018-12-16T12:16:23.861Z,99.28
2018-12-16T12:17:23.769Z,99.09
2018-12-16T12:18:23.682Z,98.81
2018-12-16T12:19:23.595Z,99.00
2018-12-16T12:20:23.503Z,99.66
2018-12-16T12:21:23.417Z,98.33
2018-12-16T12:22:23.327Z,98.43
2018-12-16T12:23:23.271Z,97.39
2018-12-16T12:24:23.148Z,98.05
2018-12-16T12:25:23.060Z,97.30
2018-12-16T12:26:22.969Z,97.30
2018-12-16T12:27:22.880Z,97.30
2018-12-16T12:28:22.795Z,97.01
2018-12-16T12:29:22.702Z,97.58
2018-12-16T12:30:22.613Z,97.77
2018-12-16T12:31:22.522Z,97.86
2018-12-16T12:32:22.436Z,97.49
2018-12-16T12:33:22.344Z,97.30
2018-12-16T12:34:22.256Z,97.01
2018-12-16T12:35:22.170Z,96.73
2018-12-16T12:36:22.080Z,97.30
2018-12-16T12:37:21.990Z,97.67
2018-12-16T12:38:21.902Z,97.01
2018-12-16T12:39:21.813Z,97.11
2018-12-16T12:40:21.721Z,96.59
2018-12-16T12:41:21.631Z,96.12
2018-12-16T12:42:21.544Z,96.64
2018-12-16T12:43:21.457Z,96.26
2018-12-16T12:44:21.367Z,96.40
2018-12-16T12:45:21.279Z,96.35
2018-12-16T12:46:21.187Z,96.16
2018-12-16T12:47:21.098Z,96.78
2018-12-16T12:48:21.009Z,96.88
2018-12-16T12:49:20.923Z,96.88
2018-12-16T12:50:20.860Z,96.45
2018-12-16T12:51:20.744Z,97.49
2018-12-16T12:52:20.655Z,97.06
2018-12-16T12:53:20.565Z,96.83
2018-12-16T12:54:20.474Z,96.31
2018-12-16T12:55:26.606Z,96.40
2018-12-16T12:56:20.298Z,96.26
2018-12-16T12:57:20.218Z,97.82
2018-12-16T12:58:20.119Z,97.39
2018-12-16T12:59:20.031Z,97.01
2018-12-16T13:00:19.941Z,97.01
2018-12-16T13:01:19.853Z,96.69
2018-12-16T13:02:19.764Z,96.16
2018-12-16T13:03:19.679Z,96.07
2018-12-16T13:04:19.588Z,96.40
2018-12-16T13:05:19.540Z,96.40
2018-12-16T13:06:19.411Z,96.50
2018-12-16T13:07:19.319Z,95.64
2018-12-16T13:10:02.311Z,95.64